Carolina Shores, North Carolina
Current Conditions -  °F | °C
As of 4:53 AM on Thursday 29 Jan 2015 (Local Time) from KCRE Reporting Station
Clear Clear  
Wind Chill: 25°   Ceiling: Unl
Heat Index: 25°   Visibility: 10mi
Dew Point: 23°   Wind: 0mph
Humidity: 92%   Direction: NA
Pressure: 30.33"   Gusts: NA
Location:  33.9181°N, 78.5805°W
Report Text: KCRE 290953Z AUTO 00000KT 10SM CLR M04/M05 A3033 RMK AO1 SLP272 I1000 T10391050
Loading
Personal Weather Stations






























Interactive Weather Map New forecast layout! Learn more

10-Day Weather Forecast

Advertisements
Track Severe Weather on mobile